Time;durP1;ratioP1;P1;durP2;ratioP2;P2;SDS_P1;SDS_P2;PMS_P1;PMS_P2;Temp;Humidity;BMP_temperature;BMP_pressure;BME280_temperature;BME280_humidity;BME280_pressure;Samples;Min_cycle;Max_cycle;Signal;HPM_P1;HPM_P2
2022/09/07 00:01:02;;;;;;;14.45;10.18;;;23.10;67.80;;;;;;5073030;28;20033;-71
2022/09/07 00:03:28;;;;;;;13.57;10.25;;;23.00;68.40;;;;;;5073472;28;20065;-71
2022/09/07 00:05:54;;;;;;;13.43;10.23;;;22.90;69.00;;;;;;5076147;28;20040;-71
2022/09/07 00:08:23;;;;;;;12.13;9.32;;;22.90;69.20;;;;;;5077073;28;20021;-71
2022/09/07 00:11:02;;;;;;;11.85;9.05;;;23.00;69.20;;;;;;5077047;28;20053;-71
2022/09/07 00:13:31;;;;;;;12.20;9.43;;;23.10;69.10;;;;;;5077024;28;20029;-71
2022/09/07 00:15:57;;;;;;;11.93;8.85;;;23.00;68.80;;;;;;5076942;28;20032;-71
2022/09/07 00:18:23;;;;;;;11.02;9.20;;;23.00;68.90;;;;;;5076875;28;20029;-71
2022/09/07 00:20:59;;;;;;;12.32;8.38;;;23.00;69.40;;;;;;5075878;28;20029;-71
2022/09/07 00:23:26;;;;;;;12.25;7.55;;;23.00;68.50;;;;;;5076676;28;20025;-71
2022/09/07 00:25:51;;;;;;;9.57;7.30;;;23.00;68.20;;;;;;5076708;28;20043;-71
2022/09/07 00:28:17;;;;;;;10.27;7.97;;;22.90;68.30;;;;;;5076625;28;20033;-71
2022/09/07 00:30:43;;;;;;;10.30;7.88;;;22.90;68.30;;;;;;5076622;28;20104;-71
2022/09/07 00:33:09;;;;;;;13.55;7.60;;;22.90;68.30;;;;;;5076606;28;20028;-71
2022/09/07 00:35:41;;;;;;;12.05;8.35;;;22.90;68.50;;;;;;5076563;28;20045;-71
2022/09/07 00:38:08;;;;;;;10.23;8.10;;;22.90;68.40;;;;;;5076476;28;20100;-71
2022/09/07 00:40:33;;;;;;;12.25;7.60;;;22.80;68.40;;;;;;5076507;28;20025;-71
2022/09/07 00:42:59;;;;;;;8.45;6.53;;;22.80;68.20;;;;;;5076347;28;20039;-71
2022/09/07 00:45:25;;;;;;;8.50;6.57;;;22.80;68.00;;;;;;5076394;28;20056;-71
2022/09/07 00:47:56;;;;;;;8.25;6.28;;;22.80;67.90;;;;;;5076316;28;20029;-71
2022/09/07 00:50:33;;;;;;;8.80;6.10;;;22.60;67.90;;;;;;5076439;28;20025;-72
2022/09/07 00:53:09;;;;;;;8.68;5.88;;;22.60;67.70;;;;;;5076309;28;20021;-71
2022/09/07 00:55:37;;;;;;;7.88;5.50;;;22.50;68.10;;;;;;5076369;28;20024;-71
2022/09/07 00:58:04;;;;;;;6.32;4.80;;;22.40;67.90;;;;;;5076132;28;20025;-71
2022/09/07 01:00:31;;;;;;;6.68;4.43;;;22.30;67.80;;;;;;5076070;28;20017;-71
2022/09/07 01:02:58;;;;;;;6.10;4.15;;;22.30;67.90;;;;;;5075275;28;20037;-71
2022/09/07 01:05:29;;;;;;;6.07;3.70;;;22.30;67.60;;;;;;5074809;28;20025;-71
2022/09/07 01:07:56;;;;;;;4.38;3.50;;;22.20;67.50;;;;;;5074865;28;20021;-72
2022/09/07 01:10:30;;;;;;;5.28;3.17;;;22.10;67.50;;;;;;5074724;28;20040;-71
2022/09/07 01:12:56;;;;;;;4.07;3.42;;;22.10;67.40;;;;;;5074768;28;20017;-71
2022/09/07 01:15:30;;;;;;;4.65;3.00;;;22.10;67.10;;;;;;5074277;28;20030;-71
2022/09/07 01:18:18;;;;;;;7.00;3.65;;;22.10;67.30;;;;;;5074674;28;20051;-71
2022/09/07 01:21:40;;;;;;;6.50;3.08;;;22.00;67.40;;;;;;5074695;28;20049;-71
2022/09/07 01:24:23;;;;;;;4.85;2.92;;;21.90;67.50;;;;;;5059571;28;20037;-71
2022/09/07 01:27:26;;;;;;;4.53;2.92;;;21.90;67.50;;;;;;5074651;28;20021;-71
2022/09/07 01:30:01;;;;;;;5.40;2.88;;;21.90;67.50;;;;;;5074359;28;20036;-71
2022/09/07 01:32:44;;;;;;;5.15;3.00;;;21.80;67.40;;;;;;5074456;28;20025;-71
2022/09/07 01:35:32;;;;;;;4.07;2.70;;;21.80;67.50;;;;;;5074475;28;20036;-71
2022/09/07 01:38:16;;;;;;;3.88;2.70;;;21.80;67.50;;;;;;5074373;28;20522;-72
2022/09/07 01:40:58;;;;;;;5.65;2.97;;;21.70;67.40;;;;;;5074277;28;20104;-71
2022/09/07 01:43:26;;;;;;;4.28;2.95;;;21.70;67.60;;;;;;5074217;28;20028;-71
2022/09/07 01:45:56;;;;;;;4.20;2.72;;;21.70;67.70;;;;;;5074316;28;20045;-71
2022/09/07 01:48:24;;;;;;;3.67;2.70;;;21.70;67.50;;;;;;5074143;28;20408;-71
2022/09/07 01:50:56;;;;;;;4.20;2.47;;;21.70;67.70;;;;;;5074110;28;20480;-71
2022/09/07 01:53:40;;;;;;;4.55;3.08;;;21.60;67.70;;;;;;5074248;28;20025;-71
2022/09/07 01:56:21;;;;;;;5.50;2.50;;;21.70;67.70;;;;;;5074162;28;20048;-71
2022/09/07 01:58:54;;;;;;;4.07;2.65;;;21.60;68.10;;;;;;5074192;28;20025;-71
2022/09/07 02:01:29;;;;;;;4.90;2.90;;;21.50;68.40;;;;;;5074128;28;20048;-71
2022/09/07 02:04:14;;;;;;;4.03;2.83;;;21.50;68.00;;;;;;5031278;28;1238143;-71
2022/09/07 02:06:48;;;;;;;4.07;2.53;;;21.50;67.80;;;;;;5075030;28;20020;-71
2022/09/07 02:09:28;;;;;;;3.30;2.70;;;21.50;68.30;;;;;;5074806;28;20064;-71
2022/09/07 02:11:54;;;;;;;4.82;3.10;;;21.40;68.20;;;;;;5074924;28;20025;-71
2022/09/07 02:14:39;;;;;;;4.45;2.55;;;21.40;68.30;;;;;;5074707;28;20041;-71
2022/09/07 02:17:15;;;;;;;5.05;3.15;;;21.50;68.10;;;;;;5074665;28;20085;-71
2022/09/07 02:19:54;;;;;;;5.72;2.90;;;21.40;68.30;;;;;;5074668;28;20448;-71
2022/09/07 02:22:26;;;;;;;4.82;2.75;;;21.40;68.30;;;;;;5074744;28;20041;-71
2022/09/07 02:24:55;;;;;;;3.77;2.53;;;21.30;68.60;;;;;;5074503;28;20104;-71
2022/09/07 02:27:34;;;;;;;4.95;3.13;;;21.20;68.60;;;;;;5073696;28;20021;-71
2022/09/07 02:30:00;;;;;;;4.20;2.67;;;21.30;68.70;;;;;;5074403;28;20552;-71
2022/09/07 02:32:26;;;;;;;4.43;2.53;;;21.30;68.70;;;;;;5074394;28;20025;-71
2022/09/07 02:34:52;;;;;;;3.15;2.50;;;21.20;68.70;;;;;;5074303;28;20032;-71
2022/09/07 02:37:19;;;;;;;4.95;2.50;;;21.20;69.30;;;;;;5074371;28;20029;-71
2022/09/07 02:39:45;;;;;;;3.35;2.53;;;21.20;69.50;;;;;;5074242;28;20021;-71
2022/09/07 02:42:11;;;;;;;2.83;2.33;;;21.10;69.60;;;;;;5074313;28;20119;-71
2022/09/07 02:44:39;;;;;;;4.45;3.20;;;21.20;69.80;;;;;;5074035;28;20052;-71
2022/09/07 02:47:05;;;;;;;6.15;2.78;;;21.20;69.60;;;;;;5074077;28;20024;-71
2022/09/07 02:49:58;;;;;;;9.73;3.75;;;21.30;69.70;;;;;;5074019;28;20025;-71
2022/09/07 02:52:35;;;;;;;2.90;2.10;;;21.20;69.80;;;;;;5074007;28;20044;-71
2022/09/07 02:55:19;;;;;;;3.78;2.55;;;21.20;69.90;;;;;;5074128;28;20079;-71
2022/09/07 02:58:02;;;;;;;3.25;2.25;;;21.10;70.00;;;;;;5074046;28;20033;-71
2022/09/07 03:00:33;;;;;;;3.78;2.42;;;21.10;70.30;;;;;;5073815;28;20025;-71
2022/09/07 03:03:16;;;;;;;4.43;2.78;;;21.20;70.40;;;;;;5073658;28;20042;-71
2022/09/07 03:05:45;;;;;;;;;;;21.20;70.40;;;;;;5074197;28;20033;-71
2022/09/07 03:08:13;;;;;;;4.03;2.33;;;21.30;70.00;;;;;;5073703;28;19905;-71
2022/09/07 03:10:40;;;;;;;3.58;2.50;;;21.20;70.50;;;;;;5073648;28;20040;-71
2022/09/07 03:13:05;;;;;;;4.45;2.60;;;21.20;70.30;;;;;;5073639;28;20021;-71
2022/09/07 03:15:31;;;;;;;4.60;2.55;;;21.30;70.50;;;;;;5073568;28;20088;-71
2022/09/07 03:17:57;;;;;;;3.65;2.33;;;21.30;70.40;;;;;;5073541;28;20108;-71
2022/09/07 03:20:23;;;;;;;4.68;3.00;;;21.30;69.90;;;;;;5073516;28;20049;-71
2022/09/07 03:22:50;;;;;;;4.45;2.78;;;21.20;70.80;;;;;;5073512;28;20075;-71
2022/09/07 03:25:16;;;;;;;4.90;2.60;;;21.00;70.50;;;;;;5073357;28;20029;-71
2022/09/07 03:27:42;;;;;;;3.58;2.28;;;21.00;70.70;;;;;;5073384;28;20025;-71
2022/09/07 03:30:09;;;;;;;3.92;2.70;;;20.90;71.30;;;;;;5073303;28;20032;-71
2022/09/07 03:32:36;;;;;;;4.47;2.50;;;20.90;71.50;;;;;;5073436;28;20017;-71
2022/09/07 03:35:04;;;;;;;4.13;2.50;;;21.10;71.40;;;;;;5073293;28;20025;-72
2022/09/07 03:37:30;;;;;;;4.47;2.70;;;21.10;71.20;;;;;;5073175;28;20032;-71
2022/09/07 03:39:56;;;;;;;5.07;2.60;;;21.10;71.10;;;;;;5073386;28;20041;-71
2022/09/07 03:42:22;;;;;;;3.97;2.60;;;21.10;70.90;;;;;;5073187;28;20071;-71
2022/09/07 03:44:48;;;;;;;4.03;2.28;;;21.10;70.60;;;;;;5073130;28;20024;-71
2022/09/07 03:47:15;;;;;;;4.45;2.85;;;21.00;70.70;;;;;;5073175;28;20017;-71
2022/09/07 03:49:41;;;;;;;4.68;2.50;;;21.00;70.80;;;;;;5073156;28;20032;-71
2022/09/07 03:52:07;;;;;;;3.28;2.65;;;21.10;71.00;;;;;;5073099;28;20021;-71
2022/09/07 03:54:33;;;;;;;3.45;3.00;;;21.00;70.80;;;;;;5073094;28;20035;-71
2022/09/07 03:56:58;;;;;;;4.60;2.80;;;21.00;71.10;;;;;;5073073;28;20053;-71
2022/09/07 03:59:24;;;;;;;4.25;3.30;;;21.10;71.00;;;;;;5073067;28;20044;-71
2022/09/07 04:01:50;;;;;;;4.43;2.90;;;21.00;70.60;;;;;;5072883;28;20049;-71
2022/09/07 04:04:15;;;;;;;5.53;3.28;;;20.90;70.60;;;;;;5072936;28;20029;-71
2022/09/07 04:06:41;;;;;;;5.35;3.58;;;20.70;70.90;;;;;;5073012;28;20033;-72
2022/09/07 04:09:11;;;;;;;4.28;3.25;;;20.60;71.40;;;;;;5073000;28;20051;-71
2022/09/07 04:11:36;;;;;;;4.53;3.05;;;20.60;71.80;;;;;;5073259;28;20051;-72
2022/09/07 04:14:02;;;;;;;4.05;3.13;;;20.60;71.80;;;;;;5072903;28;20416;-71
2022/09/07 04:16:28;;;;;;;5.13;3.30;;;20.60;71.80;;;;;;5072918;28;20049;-72
2022/09/07 04:18:54;;;;;;;4.95;3.60;;;20.60;72.30;;;;;;5072872;28;20033;-72
2022/09/07 04:21:21;;;;;;;5.15;3.28;;;20.60;72.00;;;;;;5072845;28;20039;-72
2022/09/07 04:23:48;;;;;;;5.45;3.53;;;20.70;71.80;;;;;;5072747;28;20044;-72
2022/09/07 04:26:16;;;;;;;5.03;3.40;;;20.70;71.70;;;;;;5072800;28;20032;-71
2022/09/07 04:28:42;;;;;;;5.75;3.75;;;20.70;71.90;;;;;;5072680;28;20021;-71
2022/09/07 04:31:08;;;;;;;5.97;4.00;;;20.60;72.00;;;;;;5072672;28;20081;-71
2022/09/07 04:33:34;;;;;;;6.40;4.18;;;20.50;72.40;;;;;;5072714;28;20028;-71
2022/09/07 04:36:01;;;;;;;4.75;3.70;;;20.60;72.40;;;;;;5072747;28;20025;-71
2022/09/07 04:38:27;;;;;;;6.55;4.05;;;20.60;72.20;;;;;;5072668;28;20029;-71
2022/09/07 04:40:59;;;;;;;5.75;4.03;;;20.70;72.00;;;;;;5072682;28;20025;-71
2022/09/07 04:43:25;;;;;;;6.03;4.00;;;20.70;71.70;;;;;;5072569;28;20029;-71
2022/09/07 04:45:51;;;;;;;6.85;3.88;;;20.60;72.20;;;;;;5072602;28;20028;-71
2022/09/07 04:48:16;;;;;;;7.82;4.55;;;20.50;72.10;;;;;;5072535;28;20021;-71
2022/09/07 04:50:42;;;;;;;6.22;4.30;;;20.50;72.50;;;;;;5075103;28;20021;-71
2022/09/07 04:53:08;;;;;;;7.32;4.55;;;20.60;72.50;;;;;;5076223;28;20042;-71
2022/09/07 04:55:33;;;;;;;5.60;3.83;;;20.60;72.00;;;;;;5076230;28;20076;-71
2022/09/07 04:57:59;;;;;;;6.95;4.35;;;20.60;71.90;;;;;;5076196;28;20032;-71
2022/09/07 05:00:25;;;;;;;9.98;4.70;;;20.40;72.20;;;;;;5076131;28;20029;-71
2022/09/07 05:02:51;;;;;;;7.40;4.85;;;20.40;72.70;;;;;;5075884;28;20047;-71
2022/09/07 05:05:17;;;;;;;7.65;4.60;;;20.30;73.00;;;;;;5076077;28;20037;-71
2022/09/07 05:07:43;;;;;;;7.70;4.80;;;20.20;73.70;;;;;;5076019;28;20040;-71
2022/09/07 05:10:08;;;;;;;9.13;4.97;;;20.00;74.50;;;;;;5076064;28;20495;-70
2022/09/07 05:12:34;;;;;;;6.82;5.20;;;20.00;74.70;;;;;;5075885;28;20061;-71
2022/09/07 05:15:00;;;;;;;7.32;5.18;;;19.90;75.30;;;;;;5076006;28;20025;-71
2022/09/07 05:17:26;;;;;;;7.03;5.25;;;19.90;75.20;;;;;;5075820;28;20021;-71
2022/09/07 05:19:52;;;;;;;6.45;4.75;;;20.00;75.10;;;;;;5075723;28;20036;-71
2022/09/07 05:22:18;;;;;;;9.23;5.32;;;19.90;75.20;;;;;;5075720;28;20025;-71
2022/09/07 05:24:45;;;;;;;8.23;4.68;;;20.10;75.00;;;;;;5075591;28;20021;-71
2022/09/07 05:27:10;;;;;;;13.57;5.50;;;20.10;74.40;;;;;;5074725;28;20029;-71
2022/09/07 05:29:36;;;;;;;8.77;5.07;;;20.20;74.30;;;;;;5075513;28;20099;-71
2022/09/07 05:32:01;;;;;;;9.73;5.50;;;20.20;74.40;;;;;;5075481;28;20036;-71
2022/09/07 05:34:27;;;;;;;11.48;5.97;;;20.20;74.40;;;;;;5075486;28;20099;-71
2022/09/07 05:36:53;;;;;;;7.63;5.38;;;20.20;74.30;;;;;;5075422;28;20063;-71
2022/09/07 05:39:19;;;;;;;7.53;5.43;;;20.30;74.20;;;;;;5075387;28;20032;-71
2022/09/07 05:41:45;;;;;;;8.52;5.68;;;20.40;73.90;;;;;;5075368;28;20021;-71
2022/09/07 05:44:12;;;;;;;7.55;5.22;;;20.40;73.60;;;;;;5075204;28;20081;-71
2022/09/07 05:46:38;;;;;;;7.03;5.35;;;20.40;73.40;;;;;;5075236;28;20021;-71
2022/09/07 05:49:05;;;;;;;9.10;5.53;;;20.30;73.50;;;;;;5075317;28;20029;-71
2022/09/07 05:51:30;;;;;;;9.98;5.88;;;20.40;73.50;;;;;;5074157;28;20045;-71
2022/09/07 05:53:56;;;;;;;9.65;6.07;;;20.30;73.30;;;;;;5075148;28;20062;-71
2022/09/07 05:56:22;;;;;;;9.95;6.10;;;20.30;73.40;;;;;;5075068;28;20017;-71
2022/09/07 05:58:48;;;;;;;10.93;6.05;;;20.30;73.50;;;;;;5075010;28;20032;-71
2022/09/07 06:01:14;;;;;;;7.65;5.80;;;20.30;73.90;;;;;;5073773;28;20029;-71
2022/09/07 06:03:41;;;;;;;10.23;6.78;;;20.20;74.10;;;;;;5074702;28;20045;-71
2022/09/07 06:06:12;;;;;;;9.60;6.32;;;20.20;74.30;;;;;;5074913;28;20025;-71
2022/09/07 06:08:42;;;;;;;10.27;6.57;;;20.20;74.50;;;;;;5074858;28;20083;-71
2022/09/07 06:11:09;;;;;;;10.52;6.97;;;20.20;74.80;;;;;;5074760;28;20021;-71
2022/09/07 06:13:36;;;;;;;9.27;6.63;;;20.20;74.90;;;;;;5074744;28;20029;-71
2022/09/07 06:16:03;;;;;;;10.80;7.38;;;20.10;75.40;;;;;;5074681;28;20025;-71
2022/09/07 06:18:31;;;;;;;11.60;8.10;;;20.00;75.70;;;;;;5074561;28;20035;-71
2022/09/07 06:21:04;;;;;;;14.43;9.45;;;20.00;75.60;;;;;;5074651;28;20025;-71
2022/09/07 06:23:32;;;;;;;13.98;9.85;;;20.00;75.80;;;;;;5074448;28;20051;-71
2022/09/07 06:25:58;;;;;;;14.55;9.45;;;20.00;76.10;;;;;;5074502;28;20025;-71
2022/09/07 06:28:37;;;;;;;15.43;10.23;;;19.90;76.30;;;;;;5074313;28;20411;-71
2022/09/07 06:31:15;;;;;;;12.23;8.95;;;19.80;76.90;;;;;;5074406;28;20029;-71
2022/09/07 06:33:43;;;;;;;14.98;10.07;;;19.80;77.30;;;;;;5074395;28;20071;-71
2022/09/07 06:36:12;;;;;;;15.35;10.07;;;19.80;77.60;;;;;;5074299;28;20025;-71
2022/09/07 06:38:38;;;;;;;13.57;10.07;;;19.80;77.70;;;;;;5074287;28;20024;-71
2022/09/07 06:41:12;;;;;;;14.13;10.15;;;19.80;77.80;;;;;;5074222;28;20025;-71
2022/09/07 06:43:38;;;;;;;15.32;9.43;;;19.80;77.70;;;;;;5074256;28;20017;-71
2022/09/07 06:46:05;;;;;;;14.82;10.00;;;19.90;77.40;;;;;;5074125;28;20044;-71
2022/09/07 06:48:31;;;;;;;11.75;9.55;;;20.00;78.10;;;;;;5074066;28;20025;-71
2022/09/07 06:51:02;;;;;;;15.38;9.68;;;20.10;77.80;;;;;;5074079;28;20096;-72
2022/09/07 06:53:34;;;;;;;13.10;9.57;;;20.20;77.00;;;;;;5074201;28;20022;-71
2022/09/07 06:56:03;;;;;;;13.98;10.30;;;20.30;76.70;;;;;;5073941;28;20264;-71
2022/09/07 06:58:29;;;;;;;13.48;10.05;;;20.30;76.50;;;;;;5073915;28;20028;-71
2022/09/07 07:00:55;;;;;;;14.43;10.50;;;20.40;76.60;;;;;;5073916;28;20029;-71
2022/09/07 07:03:21;;;;;;;14.93;10.55;;;20.40;76.50;;;;;;5073606;28;20067;-72
2022/09/07 07:05:54;;;;;;;15.05;9.75;;;20.40;76.30;;;;;;5072394;28;20028;-71
2022/09/07 07:08:22;;;;;;;15.88;9.55;;;20.50;76.20;;;;;;5073402;28;20100;-72
2022/09/07 07:10:49;;;;;;;16.65;10.82;;;20.40;76.20;;;;;;5073272;28;20044;-71
2022/09/07 07:13:15;;;;;;;16.20;10.80;;;20.40;76.30;;;;;;5072212;28;20021;-71
2022/09/07 07:15:41;;;;;;;16.40;10.80;;;20.40;76.80;;;;;;5073625;28;20056;-71
2022/09/07 07:18:07;;;;;;;17.60;11.30;;;20.40;76.60;;;;;;5073582;28;20025;-71
2022/09/07 07:20:35;;;;;;;16.02;10.50;;;20.30;76.90;;;;;;5073542;28;20061;-71
2022/09/07 07:23:00;;;;;;;18.45;10.93;;;20.30;76.90;;;;;;5073492;28;20017;-71
2022/09/07 07:25:26;;;;;;;16.10;10.95;;;20.40;77.20;;;;;;5073483;28;20036;-71
2022/09/07 07:27:52;;;;;;;16.02;9.98;;;20.40;77.50;;;;;;5073324;28;20036;-71
2022/09/07 07:30:18;;;;;;;19.02;11.10;;;20.40;77.30;;;;;;5073292;28;20036;-71
2022/09/07 07:32:45;;;;;;;16.70;11.05;;;20.40;77.50;;;;;;5073373;28;20025;-71
2022/09/07 07:35:20;;;;;;;22.50;12.07;;;20.40;77.10;;;;;;5073331;28;20028;-71
2022/09/07 07:37:47;;;;;;;20.60;11.57;;;20.40;77.20;;;;;;5072363;28;20029;-71
2022/09/07 07:40:13;;;;;;;20.30;11.18;;;20.30;77.40;;;;;;5073249;28;20025;-72
2022/09/07 07:42:40;;;;;;;19.17;12.57;;;20.30;77.60;;;;;;5073399;28;20021;-71
2022/09/07 07:45:07;;;;;;;20.42;11.77;;;20.40;78.50;;;;;;5073161;28;20025;-72
2022/09/07 07:47:34;;;;;;;21.90;12.82;;;20.50;79.00;;;;;;5073192;28;20029;-72
2022/09/07 07:50:04;;;;;;;20.58;12.25;;;20.60;79.30;;;;;;5073240;28;20081;-72
2022/09/07 07:52:35;;;;;;;19.77;12.23;;;20.70;78.60;;;;;;5073126;28;20052;-72
2022/09/07 07:55:01;;;;;;;18.65;12.05;;;20.70;78.40;;;;;;5073157;28;20056;-72
2022/09/07 07:57:27;;;;;;;22.00;12.18;;;20.70;77.60;;;;;;5073165;28;20030;-72
2022/09/07 07:59:53;;;;;;;19.83;12.35;;;20.70;78.10;;;;;;5073085;28;20021;-72
2022/09/07 08:02:19;;;;;;;21.45;12.05;;;20.80;78.20;;;;;;5072871;28;20061;-73
2022/09/07 08:04:44;;;;;;;20.70;12.55;;;20.90;77.10;;;;;;5073014;28;20021;-73
2022/09/07 08:07:10;;;;;;;18.90;12.23;;;20.80;77.60;;;;;;5073007;28;20483;-73
2022/09/07 08:09:38;;;;;;;21.13;12.57;;;20.90;77.80;;;;;;5072981;28;20021;-73
2022/09/07 08:12:04;;;;;;;22.35;13.40;;;21.00;77.30;;;;;;5072947;28;20048;-73
2022/09/07 08:14:29;;;;;;;22.45;14.00;;;21.00;77.00;;;;;;5071914;28;20041;-73
2022/09/07 08:16:55;;;;;;;24.45;13.02;;;21.10;76.70;;;;;;5073039;28;20092;-73
2022/09/07 08:19:21;;;;;;;21.20;13.30;;;21.10;76.30;;;;;;5073039;28;20048;-73
2022/09/07 08:21:46;;;;;;;23.60;14.20;;;21.20;76.90;;;;;;5072872;28;20037;-72
2022/09/07 08:24:12;;;;;;;24.63;14.00;;;21.20;76.10;;;;;;5072038;28;20124;-73
2022/09/07 08:26:38;;;;;;;25.15;14.13;;;21.20;75.80;;;;;;5076752;28;20033;-72
2022/09/07 08:29:03;;;;;;;24.95;14.52;;;21.20;76.20;;;;;;5076824;28;20017;-73
2022/09/07 08:31:29;;;;;;;25.45;15.20;;;21.30;75.90;;;;;;5076697;28;20069;-74
2022/09/07 08:33:54;;;;;;;27.73;15.82;;;21.30;75.40;;;;;;5076636;28;20415;-74
2022/09/07 08:36:20;;;;;;;25.63;14.40;;;21.20;74.90;;;;;;5076609;28;20029;-73
2022/09/07 08:38:47;;;;;;;30.85;15.43;;;21.30;74.90;;;;;;5076546;28;20022;-73
2022/09/07 08:41:53;;;;;;;28.77;15.82;;;21.40;75.30;;;;;;5076491;28;20100;-73
2022/09/07 08:44:18;;;;;;;26.77;15.30;;;21.50;75.40;;;;;;5076440;28;20033;-73
2022/09/07 08:46:46;;;;;;;26.35;15.25;;;21.60;74.90;;;;;;5076434;28;20032;-73
2022/09/07 08:49:53;;;;;;;25.58;15.45;;;21.70;74.70;;;;;;5076371;28;20025;-73
2022/09/07 08:52:28;;;;;;;23.38;14.50;;;21.80;73.90;;;;;;5076408;28;20021;-73
2022/09/07 08:55:11;;;;;;;26.67;15.88;;;21.80;74.10;;;;;;5076447;28;20128;-74
2022/09/07 09:01:58;;;;;;;23.33;14.95;;;21.90;73.50;;;;;;5054569;28;20055;-73
2022/09/07 09:04:45;;;;;;;22.23;13.95;;;22.00;73.30;;;;;;5068126;28;20053;-73
2022/09/07 09:07:50;;;;;;;24.58;14.13;;;22.00;72.60;;;;;;5075048;28;20024;-74
2022/09/07 09:10:32;;;;;;;21.60;13.48;;;22.00;71.90;;;;;;5074988;28;20047;-73
2022/09/07 09:13:24;;;;;;;21.23;13.67;;;21.90;71.80;;;;;;5076067;28;20021;-73
2022/09/07 09:16:03;;;;;;;21.10;14.07;;;22.10;72.50;;;;;;5074715;28;20048;-73
2022/09/07 09:18:47;;;;;;;20.05;12.85;;;22.20;71.60;;;;;;5075911;28;20025;-73
2022/09/07 09:21:16;;;;;;;16.92;11.77;;;22.30;71.70;;;;;;5075945;28;20078;-73
2022/09/07 09:23:43;;;;;;;18.13;11.93;;;22.40;70.40;;;;;;5075751;28;20467;-74
2022/09/07 09:26:12;;;;;;;18.50;12.55;;;22.40;70.00;;;;;;5075720;28;20018;-74
2022/09/07 09:28:38;;;;;;;17.58;11.57;;;22.50;70.70;;;;;;5075593;28;20021;-73
2022/09/07 09:31:04;;;;;;;15.00;10.00;;;22.70;70.00;;;;;;5075720;28;20024;-73
2022/09/07 09:33:30;;;;;;;20.40;9.55;;;22.80;69.20;;;;;;5075453;28;20029;-73
2022/09/07 09:35:59;;;;;;;15.25;9.68;;;22.90;68.00;;;;;;5074602;28;20033;-73
2022/09/07 09:38:38;;;;;;;14.63;9.85;;;23.00;67.00;;;;;;5074471;28;20044;-73
2022/09/07 09:41:06;;;;;;;14.75;9.82;;;23.10;67.30;;;;;;5075308;28;20052;-73
2022/09/07 09:43:50;;;;;;;14.85;9.68;;;23.20;67.60;;;;;;5075221;28;20028;-73
2022/09/07 09:46:21;;;;;;;14.00;8.90;;;23.30;66.30;;;;;;5075308;28;20025;-73
2022/09/07 09:49:16;;;;;;;13.73;9.18;;;23.30;65.90;;;;;;5075330;28;20027;-73
2022/09/07 09:51:45;;;;;;;13.13;8.80;;;23.50;66.00;;;;;;5075224;28;20025;-74
2022/09/07 09:54:37;;;;;;;13.70;9.07;;;23.60;66.00;;;;;;5075169;28;20025;-73
2022/09/07 09:57:03;;;;;;;13.18;9.18;;;23.60;65.10;;;;;;5074842;28;20041;-73
2022/09/07 09:59:31;;;;;;;12.50;8.30;;;23.70;64.90;;;;;;5074067;28;20021;-73
2022/09/07 10:01:58;;;;;;;12.93;8.15;;;23.70;64.80;;;;;;5075060;28;20036;-74
2022/09/07 10:04:29;;;;;;;11.77;7.78;;;23.60;62.70;;;;;;5074794;28;20080;-73
2022/09/07 10:06:58;;;;;;;10.10;7.55;;;23.50;63.60;;;;;;5075073;28;20037;-73
2022/09/07 10:09:35;;;;;;;12.60;7.28;;;23.50;63.20;;;;;;5075031;28;20013;-73
2022/09/07 10:12:02;;;;;;;11.55;7.18;;;23.60;64.10;;;;;;5073685;28;20047;-73
2022/09/07 10:14:29;;;;;;;9.98;6.47;;;23.60;63.50;;;;;;5074805;28;20028;-73
2022/09/07 10:16:55;;;;;;;16.48;7.50;;;23.70;63.40;;;;;;5074721;28;20463;-73
2022/09/07 10:19:35;;;;;;;9.73;6.28;;;23.70;62.40;;;;;;5074867;28;20088;-73
2022/09/07 10:22:21;;;;;;;9.55;5.93;;;23.70;62.10;;;;;;5074855;28;20081;-73
2022/09/07 10:24:47;;;;;;;9.60;6.22;;;23.80;63.10;;;;;;5074707;28;20029;-73
2022/09/07 10:27:35;;;;;;;11.10;6.63;;;23.90;63.00;;;;;;5073591;28;20048;-73
2022/09/07 10:30:05;;;;;;;11.35;6.78;;;24.00;62.20;;;;;;5074477;28;20052;-73
2022/09/07 10:32:56;;;;;;;10.20;6.72;;;24.10;62.70;;;;;;5073479;28;20029;-73
2022/09/07 10:35:30;;;;;;;8.80;5.90;;;24.20;61.10;;;;;;5074418;28;20024;-73
2022/09/07 10:38:00;;;;;;;10.27;6.22;;;24.20;60.60;;;;;;5074380;28;20025;-73
2022/09/07 10:41:03;;;;;;;11.57;7.43;;;24.20;61.10;;;;;;5074437;28;20025;-73
2022/09/07 10:43:28;;;;;;;12.65;7.32;;;24.40;61.00;;;;;;5074166;28;20017;-73
2022/09/07 10:46:18;;;;;;;9.38;7.05;;;24.50;61.20;;;;;;5074162;28;20024;-73
2022/09/07 10:49:05;;;;;;;10.18;6.38;;;24.70;61.40;;;;;;5073486;28;20032;-73
2022/09/07 10:51:33;;;;;;;10.52;6.47;;;24.70;59.80;;;;;;5074250;28;20080;-74
2022/09/07 10:54:28;;;;;;;10.45;7.55;;;24.70;59.20;;;;;;5073009;28;20033;-74
2022/09/07 10:57:00;;;;;;;10.50;6.47;;;24.80;59.00;;;;;;5074038;28;20047;-73
2022/09/07 10:59:50;;;;;;;8.77;6.32;;;24.90;60.30;;;;;;5073949;28;20025;-74
2022/09/07 11:02:43;;;;;;;7.78;6.25;;;25.00;59.60;;;;;;5073706;28;20021;-73
2022/09/07 11:05:36;;;;;;;8.70;6.75;;;25.00;59.40;;;;;;5073895;28;20021;-73
2022/09/07 11:08:23;;;;;;;8.52;6.20;;;24.80;58.00;;;;;;5073838;28;20510;-74
2022/09/07 11:11:12;;;;;;;8.50;5.90;;;24.70;57.80;;;;;;5073765;28;20048;-73
2022/09/07 11:13:42;;;;;;;9.43;5.43;;;24.60;57.30;;;;;;5073889;28;20025;-73
2022/09/07 11:16:15;;;;;;;8.25;5.28;;;24.50;58.60;;;;;;5073710;28;20025;-74
2022/09/07 11:18:57;;;;;;;9.00;6.03;;;24.40;57.50;;;;;;5073799;28;20051;-73
2022/09/07 11:21:30;;;;;;;7.05;5.45;;;24.40;59.40;;;;;;5073757;28;20500;-73
2022/09/07 11:24:26;;;;;;;8.38;5.40;;;24.30;60.20;;;;;;5073495;28;20025;-73
2022/09/07 11:26:56;;;;;;;7.10;4.78;;;24.40;60.60;;;;;;5072226;28;20033;-73
2022/09/07 11:29:31;;;;;;;6.47;4.38;;;24.50;59.30;;;;;;5073436;28;20127;-73
2022/09/07 11:32:21;;;;;;;9.20;4.57;;;24.50;57.20;;;;;;5073444;28;20041;-73
2022/09/07 11:35:12;;;;;;;7.13;4.03;;;24.50;57.70;;;;;;5073449;28;20064;-73
2022/09/07 11:37:42;;;;;;;8.73;4.47;;;24.40;58.90;;;;;;5070180;28;20052;-73
2022/09/07 11:40:13;;;;;;;6.72;4.22;;;24.40;57.60;;;;;;5073305;28;20029;-74
2022/09/07 11:42:58;;;;;;;6.07;3.92;;;24.60;58.00;;;;;;5073465;28;20036;-73
2022/09/07 11:45:46;;;;;;;7.10;3.72;;;24.70;57.00;;;;;;5073189;28;20032;-73
2022/09/07 11:48:23;;;;;;;5.07;3.15;;;24.80;55.70;;;;;;5073251;28;20434;-73
2022/09/07 11:50:56;;;;;;;6.97;3.78;;;24.90;56.40;;;;;;5073237;28;20021;-73
2022/09/07 11:53:33;;;;;;;5.93;3.42;;;24.90;56.20;;;;;;5073208;28;20025;-73
2022/09/07 11:56:16;;;;;;;4.85;2.88;;;25.00;57.20;;;;;;5072250;28;20059;-74
2022/09/07 11:58:50;;;;;;;5.22;2.97;;;25.10;57.10;;;;;;5073326;28;20031;-73
2022/09/07 12:01:40;;;;;;;4.72;2.70;;;25.10;53.60;;;;;;5077281;28;20049;-73
2022/09/07 12:04:24;;;;;;;7.07;3.10;;;25.00;55.00;;;;;;5076089;28;20058;-73
2022/09/07 12:07:12;;;;;;;5.65;2.70;;;25.10;54.70;;;;;;5077408;28;20021;-73
2022/09/07 12:10:02;;;;;;;3.67;2.05;;;25.00;55.10;;;;;;5077188;28;20032;-73
2022/09/07 12:12:49;;;;;;;4.63;2.65;;;25.10;54.50;;;;;;5077114;28;20029;-74
2022/09/07 12:15:46;;;;;;;4.68;2.30;;;25.10;53.40;;;;;;5076098;28;20025;-74
2022/09/07 12:18:38;;;;;;;9.30;2.42;;;25.20;54.40;;;;;;5077016;28;20029;-73
2022/09/07 12:21:35;;;;;;;6.93;2.00;;;25.10;54.10;;;;;;5076062;28;20043;-74
2022/09/07 12:24:01;;;;;;;4.25;2.30;;;25.30;53.70;;;;;;5077009;28;20041;-74
2022/09/07 12:26:32;;;;;;;4.70;2.38;;;25.30;52.20;;;;;;5076836;28;20032;-73
2022/09/07 12:28:58;;;;;;;4.60;2.40;;;25.30;52.50;;;;;;5076758;28;20549;-73
2022/09/07 12:31:49;;;;;;;5.53;3.00;;;25.30;52.60;;;;;;5076773;28;20029;-73
2022/09/07 12:34:30;;;;;;;6.25;2.30;;;25.30;52.70;;;;;;5076758;28;20017;-72
2022/09/07 12:37:01;;;;;;;5.75;1.83;;;25.20;52.20;;;;;;5076675;28;20084;-73
2022/09/07 12:39:31;;;;;;;3.35;1.92;;;25.10;52.00;;;;;;5076612;28;20025;-73
2022/09/07 12:42:09;;;;;;;3.72;1.75;;;25.20;52.80;;;;;;5076634;28;20050;-73
2022/09/07 12:44:36;;;;;;;4.10;1.50;;;25.20;53.00;;;;;;5076449;28;20495;-73
2022/09/07 12:47:17;;;;;;;3.70;2.08;;;25.30;53.00;;;;;;5076467;28;20220;-73
2022/09/07 12:50:08;;;;;;;3.08;1.60;;;25.40;52.30;;;;;;5076485;28;20047;-73
2022/09/07 12:52:39;;;;;;;4.53;1.50;;;25.50;51.90;;;;;;5076549;28;20081;-73
2022/09/07 12:55:13;;;;;;;7.32;1.60;;;25.60;51.50;;;;;;5076390;28;20096;-73
2022/09/07 12:58:03;;;;;;;4.47;1.60;;;25.50;51.10;;;;;;5076251;28;20033;-74
2022/09/07 13:00:55;;;;;;;7.32;1.63;;;25.60;51.30;;;;;;5076234;28;20029;-72
2022/09/07 13:03:49;;;;;;;4.03;1.30;;;25.70;49.40;;;;;;5067610;28;20037;-73
2022/09/07 13:06:28;;;;;;;4.30;2.00;;;25.70;51.30;;;;;;5060919;28;20041;-73
2022/09/07 13:09:21;;;;;;;4.55;1.67;;;25.70;49.10;;;;;;5076215;28;20021;-73
2022/09/07 13:11:46;;;;;;;5.43;1.92;;;25.60;51.30;;;;;;5075371;28;20045;-73